OEGN

Details ICAO OEGN (GIZ)
Name KING ABDULLAH BIN ABDULAZIZ
Region Saudi Arabia
Timezone Asia/Riyadh (UTC+3.0)
Plans Departing 20
Arriving 32
Stats Elevation 20 ft / 6 m (AMSL)
Location 16.901080° 42.585782°
Runways 1
Magnetic Variation 2.638° E
Sunrise 2017-12-12 03:30:43 UTC / 2017-12-12 06:30:43 Local
Sunset 2017-12-12 14:38:49 UTC / 2017-12-12 17:38:49 Local
Advertisement - Login to hide

Runways

ID Width Length Bearing (true) Bearing (mag) Surface Threshold Offset Overrun Length
15 148 ft / 45 m 10,046 ft / 3,062 m 150.15° 147.51° Asphalt 0 ft / 0 m 1,000 ft / 305 m
33 148 ft / 45 m 10,046 ft / 3,062 m 330.15° 327.51° Asphalt 0 ft / 0 m 1,000 ft / 305 m

Approach Navaids

Runway Type Ident Frequency Range Bearing (true) Bearing (mag) Slope Elevation
33 Localiser IGZN 109.90 MHz 18 nm / 33 km 330.16° 327.53° - 20 ft / 6 m (AMSL)
33 Glidescope IGZN 109.90 MHz 10 nm / 19 km 330.15° 327.51° 3.00° 20 ft / 6 m (AMSL)
33 DME IGZN 109.90 MHz 18 nm / 33 km - - - 20 ft / 6 m (AMSL)

Map

Weather


0- 5 10 15 20 25 30 35+ Temperature / ° C

Clouds and Precipitation
Forecast for 2017-12-12 18:00 UTC. Updated 37 minutes ago

Ground ~20,000 ft ~40,000 ft Winds

METAR

OEGN 121700Z 16005KT 9000 NSC 28/21 Q1017 NOSIG

TAF

Not found

Frequencies

Ground 121.90 MHz GND
Tower 118.00 MHz JAZAN TWR
Warning: Do not use this data for real-world aviation or navigation. No guarantee of current accuracy is given.